createdAt,value
2024-03-08T00:00:02.700Z,37.11
2024-03-08T00:01:02.674Z,37.19
2024-03-08T00:02:02.856Z,37.12
2024-03-08T00:03:03.038Z,37.08
2024-03-08T00:04:03.046Z,37.09
2024-03-08T00:05:03.121Z,37.05
2024-03-08T00:06:03.222Z,37.09
2024-03-08T00:07:03.267Z,37.07
2024-03-08T00:08:03.390Z,37.01
2024-03-08T00:09:03.530Z,36.85
2024-03-08T00:10:03.635Z,36.91
2024-03-08T00:11:03.784Z,36.88
2024-03-08T00:12:03.916Z,36.82
2024-03-08T00:13:03.870Z,36.87
2024-03-08T00:14:04.005Z,36.75
2024-03-08T00:15:04.136Z,36.85
2024-03-08T00:16:04.179Z,36.72
2024-03-08T00:17:04.342Z,36.65
2024-03-08T00:18:04.489Z,36.77
2024-03-08T00:19:04.525Z,36.71
2024-03-08T00:20:04.557Z,36.72
2024-03-08T00:21:04.780Z,36.63
2024-03-08T00:22:04.748Z,36.50
2024-03-08T00:23:04.853Z,36.68
2024-03-08T00:24:05.081Z,36.54
2024-03-08T00:25:05.053Z,36.65
2024-03-08T00:26:05.101Z,36.60
2024-03-08T00:27:05.373Z,36.63
2024-03-08T00:28:05.317Z,36.52
2024-03-08T00:29:05.375Z,36.63
2024-03-08T00:30:05.617Z,36.45
2024-03-08T00:31:05.620Z,36.46
2024-03-08T00:32:05.659Z,36.42
2024-03-08T00:33:05.884Z,36.37
2024-03-08T00:34:05.898Z,36.35
2024-03-08T00:35:05.959Z,36.36
2024-03-08T00:36:06.098Z,36.30
2024-03-08T00:37:06.185Z,36.27
2024-03-08T00:38:06.261Z,36.21
2024-03-08T00:39:06.397Z,36.32
2024-03-08T00:40:06.531Z,36.36
2024-03-08T00:41:06.589Z,36.27
2024-03-08T00:42:06.809Z,36.36
2024-03-08T00:43:06.758Z,36.28
2024-03-08T00:44:06.880Z,36.23
2024-03-08T00:45:06.989Z,36.28
2024-03-08T00:46:07.146Z,36.37
2024-03-08T00:47:07.274Z,36.19
2024-03-08T00:48:07.401Z,36.15
2024-03-08T00:49:07.417Z,36.13
2024-03-08T00:50:07.517Z,36.21
2024-03-08T00:51:07.825Z,36.10
2024-03-08T00:52:07.746Z,36.14
2024-03-08T00:53:07.889Z,36.13
2024-03-08T00:54:07.996Z,36.14
2024-03-08T00:55:08.115Z,36.23
2024-03-08T00:56:08.153Z,36.27
2024-03-08T00:57:08.485Z,36.28
2024-03-08T00:58:08.374Z,36.31
2024-03-08T00:59:08.441Z,36.26
2024-03-08T01:00:08.541Z,36.24
2024-03-08T01:01:08.769Z,36.28
2024-03-08T01:02:08.756Z,36.24
2024-03-08T01:03:08.901Z,36.23
2024-03-08T01:04:08.981Z,36.24
2024-03-08T01:05:09.087Z,36.17
2024-03-08T01:06:09.298Z,36.25
2024-03-08T01:07:09.250Z,36.24
2024-03-08T01:08:09.367Z,36.17
2024-03-08T01:09:09.551Z,36.14
2024-03-08T01:10:09.640Z,36.14
2024-03-08T01:11:09.772Z,36.12
2024-03-08T01:12:09.863Z,36.14
2024-03-08T01:13:09.865Z,36.13
2024-03-08T01:14:09.997Z,36.21
2024-03-08T01:15:10.271Z,36.16
2024-03-08T01:16:11.021Z,36.08
2024-03-08T01:17:10.347Z,36.10
2024-03-08T01:18:10.442Z,36.12
2024-03-08T01:19:10.553Z,36.12
2024-03-08T01:20:10.493Z,36.05
2024-03-08T01:21:10.586Z,36.14
2024-03-08T01:22:10.662Z,36.11
2024-03-08T01:23:10.641Z,36.15
2024-03-08T01:24:10.788Z,36.06
2024-03-08T01:25:10.745Z,36.08
2024-03-08T01:26:10.800Z,36.09
2024-03-08T01:27:11.059Z,36.09
2024-03-08T01:28:10.986Z,36.06
2024-03-08T01:29:11.084Z,36.06
2024-03-08T01:30:11.296Z,36.08
2024-03-08T01:31:11.221Z,36.02
2024-03-08T01:32:11.408Z,36.06
2024-03-08T01:33:11.481Z,36.02
2024-03-08T01:34:11.604Z,36.04
2024-03-08T01:35:11.640Z,36.05
2024-03-08T01:36:11.824Z,36.02
2024-03-08T01:37:11.818Z,36.05
2024-03-08T01:38:11.923Z,36.09
2024-03-08T01:39:12.117Z,36.08
2024-03-08T01:40:12.092Z,35.90
2024-03-08T01:41:12.171Z,36.00
2024-03-08T01:42:12.348Z,36.00
2024-03-08T01:43:12.411Z,35.96
2024-03-08T01:44:12.470Z,35.95
2024-03-08T01:45:12.681Z,35.87
2024-03-08T01:46:12.624Z,35.89
2024-03-08T01:47:12.808Z,35.93
2024-03-08T01:48:13.067Z,35.90
2024-03-08T01:49:13.060Z,35.83
2024-03-08T01:50:13.145Z,35.87
2024-03-08T01:51:13.291Z,35.87
2024-03-08T01:52:13.338Z,35.81
2024-03-08T01:53:13.386Z,35.82
2024-03-08T01:54:13.558Z,35.76
2024-03-08T01:55:13.668Z,35.83
2024-03-08T01:56:13.776Z,35.77
2024-03-08T01:57:13.987Z,35.77
2024-03-08T01:58:13.926Z,35.79
2024-03-08T01:59:14.007Z,35.76
2024-03-08T02:00:14.258Z,35.79
2024-03-08T02:01:14.243Z,35.80
2024-03-08T02:02:14.279Z,35.73
2024-03-08T02:03:14.407Z,35.74
2024-03-08T02:04:14.458Z,35.71
2024-03-08T02:05:14.519Z,35.76
2024-03-08T02:06:14.630Z,35.77
2024-03-08T02:07:14.716Z,35.69
2024-03-08T02:08:14.892Z,35.70
2024-03-08T02:09:15.093Z,35.68
2024-03-08T02:10:15.115Z,35.64
2024-03-08T02:11:15.249Z,35.60
2024-03-08T02:12:15.373Z,35.65
2024-03-08T02:13:15.393Z,35.57
2024-03-08T02:14:15.572Z,35.54
2024-03-08T02:15:15.739Z,35.54
2024-03-08T02:16:15.739Z,35.61
2024-03-08T02:17:15.843Z,35.50
2024-03-08T02:18:15.941Z,35.61
2024-03-08T02:19:16.011Z,35.54
2024-03-08T02:20:16.092Z,35.55
2024-03-08T02:21:16.210Z,35.52
2024-03-08T02:22:16.258Z,35.52
2024-03-08T02:23:16.355Z,35.44
2024-03-08T02:24:16.513Z,35.54
2024-03-08T02:25:16.573Z,35.47
2024-03-08T02:26:16.629Z,35.44
2024-03-08T02:27:16.769Z,35.47
2024-03-08T02:28:16.826Z,35.46
2024-03-08T02:29:16.852Z,35.39
2024-03-08T02:30:17.025Z,35.40
2024-03-08T02:31:16.992Z,35.44
2024-03-08T02:32:17.090Z,35.40
2024-03-08T02:33:17.311Z,35.41
2024-03-08T02:34:17.414Z,35.41
2024-03-08T02:35:17.495Z,35.35
2024-03-08T02:36:17.926Z,35.29
2024-03-08T02:37:17.618Z,35.32
2024-03-08T02:38:17.697Z,35.25
2024-03-08T02:39:17.764Z,35.31
2024-03-08T02:40:17.801Z,35.27
2024-03-08T02:41:17.822Z,35.18
2024-03-08T02:42:17.964Z,35.27
2024-03-08T02:43:17.939Z,35.22
2024-03-08T02:44:18.018Z,35.19
2024-03-08T02:45:18.057Z,35.19
2024-03-08T02:46:18.059Z,35.18
2024-03-08T02:47:18.123Z,35.15
2024-03-08T02:48:18.342Z,35.17
2024-03-08T02:49:18.220Z,35.09
2024-03-08T02:50:18.273Z,35.02
2024-03-08T02:51:18.375Z,35.06
2024-03-08T02:52:18.357Z,35.05
2024-03-08T02:53:18.366Z,35.08
2024-03-08T02:54:18.528Z,35.01
2024-03-08T02:55:18.527Z,35.08
2024-03-08T02:56:18.548Z,35.08
2024-03-08T02:57:18.604Z,35.03
2024-03-08T02:58:18.647Z,34.99
2024-03-08T02:59:18.700Z,35.05
2024-03-08T03:00:18.972Z,35.02
2024-03-08T03:01:19.065Z,35.02
2024-03-08T03:02:19.021Z,34.98
2024-03-08T03:03:19.177Z,34.98
2024-03-08T03:04:19.213Z,34.96
2024-03-08T03:05:19.345Z,34.98
2024-03-08T03:06:19.574Z,34.93
2024-03-08T03:07:19.747Z,34.92
2024-03-08T03:08:19.736Z,34.92
2024-03-08T03:09:19.862Z,34.89
2024-03-08T03:10:19.909Z,34.98
2024-03-08T03:11:20.090Z,34.79
2024-03-08T03:12:20.220Z,34.79
2024-03-08T03:13:20.202Z,34.84
2024-03-08T03:14:20.240Z,34.82
2024-03-08T03:15:21.166Z,34.75
2024-03-08T03:16:20.405Z,34.69
2024-03-08T03:17:20.542Z,34.71
2024-03-08T03:18:20.699Z,34.75
2024-03-08T03:19:20.693Z,34.70
2024-03-08T03:20:20.783Z,34.73
2024-03-08T03:21:20.952Z,34.65
2024-03-08T03:22:20.989Z,34.62
2024-03-08T03:23:21.036Z,34.67
2024-03-08T03:24:21.114Z,34.66
2024-03-08T03:25:21.157Z,34.63
2024-03-08T03:26:21.274Z,34.57
2024-03-08T03:27:21.382Z,34.67
2024-03-08T03:28:21.434Z,34.54
2024-03-08T03:29:21.505Z,34.47
2024-03-08T03:30:21.561Z,34.62
2024-03-08T03:31:21.631Z,34.54
2024-03-08T03:32:21.782Z,34.50
2024-03-08T03:33:21.864Z,34.52
2024-03-08T03:34:21.909Z,34.53
2024-03-08T03:35:22.162Z,34.52
2024-03-08T03:36:22.101Z,34.46
2024-03-08T03:37:22.161Z,34.37
2024-03-08T03:38:22.205Z,34.47
2024-03-08T03:39:22.309Z,34.41
2024-03-08T03:40:22.395Z,34.40
2024-03-08T03:41:22.429Z,34.49
2024-03-08T03:42:22.555Z,34.37
2024-03-08T03:43:22.588Z,34.40
2024-03-08T03:44:22.672Z,34.29
2024-03-08T03:45:22.756Z,34.28
2024-03-08T03:46:22.815Z,34.34
2024-03-08T03:47:22.901Z,34.24
2024-03-08T03:48:23.042Z,34.27
2024-03-08T03:49:23.093Z,34.31
2024-03-08T03:50:23.172Z,34.27
2024-03-08T03:51:23.228Z,34.31
2024-03-08T03:52:23.327Z,34.21
2024-03-08T03:53:23.424Z,34.22
2024-03-08T03:54:23.473Z,34.21
2024-03-08T03:55:23.575Z,34.20
2024-03-08T03:56:23.612Z,34.14
2024-03-08T03:57:23.706Z,34.12
2024-03-08T03:58:24.196Z,34.18
2024-03-08T03:59:23.868Z,34.14
2024-03-08T04:00:23.991Z,34.14
2024-03-08T04:01:24.127Z,34.12
2024-03-08T04:02:24.136Z,34.15
2024-03-08T04:03:24.207Z,34.14
2024-03-08T04:04:24.340Z,34.10
2024-03-08T04:05:24.500Z,34.11
2024-03-08T04:06:24.621Z,34.10
2024-03-08T04:07:24.695Z,34.05
2024-03-08T04:08:24.760Z,34.10
2024-03-08T04:09:24.839Z,34.11
2024-03-08T04:10:24.934Z,34.05
2024-03-08T04:11:25.020Z,34.02
2024-03-08T04:12:25.167Z,33.92
2024-03-08T04:13:25.165Z,33.97
2024-03-08T04:14:25.242Z,34.01
2024-03-08T04:15:25.558Z,33.96
2024-03-08T04:16:25.394Z,33.95
2024-03-08T04:17:25.536Z,33.94
2024-03-08T04:18:25.706Z,33.90
2024-03-08T04:19:25.638Z,33.88
2024-03-08T04:20:25.707Z,33.91
2024-03-08T04:21:25.897Z,33.91
2024-03-08T04:22:25.996Z,33.90
2024-03-08T04:23:26.055Z,33.91
2024-03-08T04:24:26.137Z,33.85
2024-03-08T04:25:26.194Z,33.88
2024-03-08T04:26:26.240Z,33.86
2024-03-08T04:27:26.356Z,33.79
2024-03-08T04:28:26.394Z,33.81
2024-03-08T04:29:26.498Z,33.83
2024-03-08T04:30:26.661Z,33.75
2024-03-08T04:31:26.736Z,33.71
2024-03-08T04:32:26.830Z,33.71
2024-03-08T04:33:26.953Z,33.72
2024-03-08T04:34:26.946Z,33.72
2024-03-08T04:35:27.063Z,33.75
2024-03-08T04:36:27.128Z,33.71
2024-03-08T04:37:27.207Z,33.67
2024-03-08T04:38:27.328Z,33.68
2024-03-08T04:39:27.342Z,33.65
2024-03-08T04:40:34.920Z,33.63
2024-03-08T04:41:34.972Z,33.62
2024-03-08T04:42:35.009Z,33.60
2024-03-08T04:43:35.044Z,33.59
2024-03-08T04:44:35.169Z,33.50
2024-03-08T04:45:35.101Z,33.62
2024-03-08T04:46:35.125Z,33.59
2024-03-08T04:47:35.253Z,33.58
2024-03-08T04:48:35.292Z,33.53
2024-03-08T04:49:35.296Z,33.50
2024-03-08T04:50:35.377Z,33.41
2024-03-08T04:51:35.486Z,33.47
2024-03-08T04:52:35.559Z,33.43
2024-03-08T04:53:35.712Z,33.50
2024-03-08T04:54:35.816Z,33.46
2024-03-08T04:55:35.833Z,33.47
2024-03-08T04:56:35.958Z,33.44
2024-03-08T04:57:36.038Z,33.36
2024-03-08T04:58:36.105Z,33.36
2024-03-08T04:59:36.176Z,33.36
2024-03-08T05:00:36.294Z,33.26
2024-03-08T05:01:36.454Z,33.36
2024-03-08T05:02:36.474Z,33.33
2024-03-08T05:03:36.524Z,33.25
2024-03-08T05:04:36.599Z,33.30
2024-03-08T05:05:36.781Z,33.28
2024-03-08T05:06:36.774Z,33.24
2024-03-08T05:07:36.930Z,33.18
2024-03-08T05:08:37.006Z,33.21
2024-03-08T05:09:37.041Z,33.11
2024-03-08T05:10:37.232Z,33.21
2024-03-08T05:11:37.276Z,33.16
2024-03-08T05:12:37.325Z,33.16
2024-03-08T05:13:37.376Z,33.09
2024-03-08T05:14:37.499Z,33.08
2024-03-08T05:15:37.550Z,33.11
2024-03-08T05:16:37.573Z,33.04
2024-03-08T05:17:37.797Z,33.07
2024-03-08T05:18:37.998Z,33.06
2024-03-08T05:19:37.988Z,33.05
2024-03-08T05:20:38.101Z,32.99
2024-03-08T05:21:38.138Z,32.94
2024-03-08T05:22:38.260Z,32.93
2024-03-08T05:23:38.286Z,32.93
2024-03-08T05:24:38.374Z,32.97
2024-03-08T05:25:38.439Z,32.82
2024-03-08T05:26:38.581Z,32.92
2024-03-08T05:27:38.738Z,32.94
2024-03-08T05:28:38.791Z,32.85
2024-03-08T05:29:38.878Z,32.82
2024-03-08T05:30:38.880Z,32.81
2024-03-08T05:31:39.010Z,32.80
2024-03-08T05:32:39.162Z,32.83
2024-03-08T05:33:39.269Z,32.75
2024-03-08T05:34:39.247Z,32.64
2024-03-08T05:35:39.333Z,32.72
2024-03-08T05:36:39.342Z,32.75
2024-03-08T05:37:39.490Z,32.63
2024-03-08T05:38:39.550Z,32.64
2024-03-08T05:39:39.624Z,32.63
2024-03-08T05:40:39.678Z,32.68
2024-03-08T05:41:39.865Z,32.63
2024-03-08T05:42:39.941Z,32.63
2024-03-08T05:43:39.993Z,32.55
2024-03-08T05:44:40.084Z,32.52
2024-03-08T05:45:40.170Z,32.55
2024-03-08T05:46:40.283Z,32.46
2024-03-08T05:47:40.363Z,32.41
2024-03-08T05:48:40.490Z,32.38
2024-03-08T05:49:40.456Z,32.44
2024-03-08T05:50:40.617Z,32.55
2024-03-08T05:51:40.855Z,32.58
2024-03-08T05:52:40.859Z,32.71
2024-03-08T05:53:40.978Z,33.42
2024-03-08T05:54:41.030Z,34.19
2024-03-08T05:55:41.076Z,34.51
2024-03-08T05:56:41.224Z,34.32
2024-03-08T05:57:41.561Z,34.40
2024-03-08T05:58:41.328Z,34.05
2024-03-08T05:59:41.436Z,34.60
2024-03-08T06:00:41.608Z,33.97
2024-03-08T06:01:41.533Z,35.01
2024-03-08T06:02:41.671Z,35.07
2024-03-08T06:03:41.704Z,36.90
2024-03-08T06:04:41.857Z,37.74
2024-03-08T06:05:41.925Z,37.90
2024-03-08T06:06:42.392Z,37.45
2024-03-08T06:07:42.274Z,37.26
2024-03-08T06:08:42.027Z,37.68
2024-03-08T06:09:41.992Z,37.96
2024-03-08T06:10:42.044Z,37.83
2024-03-08T06:11:42.149Z,37.25
2024-03-08T06:12:42.107Z,37.55
2024-03-08T06:13:42.113Z,37.96
2024-03-08T06:14:42.199Z,38.06
2024-03-08T06:15:42.204Z,38.21
2024-03-08T06:16:42.172Z,38.71
2024-03-08T06:17:42.294Z,39.06
2024-03-08T06:18:42.458Z,39.98
2024-03-08T06:19:42.273Z,39.41
2024-03-08T06:20:42.337Z,40.03
2024-03-08T06:21:42.383Z,39.91
2024-03-08T06:22:42.489Z,40.60
2024-03-08T06:23:42.583Z,40.55
2024-03-08T06:24:42.615Z,39.97
2024-03-08T06:25:42.709Z,40.94
2024-03-08T06:26:42.814Z,41.46
2024-03-08T06:27:42.892Z,41.53
2024-03-08T06:28:43.008Z,42.09
2024-03-08T06:29:43.108Z,42.19
2024-03-08T06:30:43.121Z,42.19
2024-03-08T06:31:43.232Z,42.64
2024-03-08T06:32:43.373Z,43.10
2024-03-08T06:33:43.542Z,42.78
2024-03-08T06:34:43.457Z,43.22
2024-03-08T06:35:43.568Z,43.12
2024-03-08T06:36:43.600Z,43.55
2024-03-08T06:37:43.695Z,43.60
2024-03-08T06:38:43.974Z,43.87
2024-03-08T06:39:43.947Z,44.02
2024-03-08T06:40:43.951Z,44.41
2024-03-08T06:41:44.052Z,44.57
2024-03-08T06:42:44.240Z,44.83
2024-03-08T06:43:44.189Z,44.91
2024-03-08T06:44:44.247Z,45.17
2024-03-08T06:45:44.300Z,45.26
2024-03-08T06:46:44.413Z,45.34
2024-03-08T06:47:44.710Z,45.45
2024-03-08T06:48:44.764Z,45.58
2024-03-08T06:49:44.684Z,45.92
2024-03-08T06:50:44.862Z,45.95
2024-03-08T06:51:44.893Z,46.07
2024-03-08T06:52:44.977Z,46.23
2024-03-08T06:53:45.074Z,46.47
2024-03-08T06:54:45.149Z,45.81
2024-03-08T06:55:45.239Z,45.59
2024-03-08T06:56:45.350Z,45.75
2024-03-08T06:57:45.390Z,45.95
2024-03-08T06:58:45.479Z,46.30
2024-03-08T06:59:45.616Z,46.56
2024-03-08T07:00:45.638Z,46.97
2024-03-08T07:01:45.728Z,47.33
2024-03-08T07:02:45.860Z,47.61
2024-03-08T07:03:46.240Z,47.62
2024-03-08T07:04:46.078Z,47.84
2024-03-08T07:05:46.186Z,47.95
2024-03-08T07:06:46.322Z,48.05
2024-03-08T07:07:46.348Z,48.38
2024-03-08T07:08:46.473Z,48.49
2024-03-08T07:09:46.552Z,48.59
2024-03-08T07:10:46.802Z,48.59
2024-03-08T07:11:46.834Z,48.81
2024-03-08T07:12:46.835Z,48.73
2024-03-08T07:13:46.961Z,48.95
2024-03-08T07:14:47.127Z,48.94
2024-03-08T07:15:47.123Z,49.24
2024-03-08T07:16:47.239Z,49.46
2024-03-08T07:17:47.325Z,49.60
2024-03-08T07:18:47.574Z,49.66
2024-03-08T07:19:47.464Z,49.85
2024-03-08T07:20:47.541Z,50.03
2024-03-08T07:21:47.714Z,50.13
2024-03-08T07:22:49.223Z,50.23
2024-03-08T07:23:47.984Z,50.38
2024-03-08T07:24:47.832Z,50.45
2024-03-08T07:25:47.901Z,50.31
2024-03-08T07:26:48.038Z,50.40
2024-03-08T07:27:48.010Z,50.42
2024-03-08T07:28:48.128Z,50.37
2024-03-08T07:29:48.261Z,50.39
2024-03-08T07:30:48.437Z,50.65
2024-03-08T07:31:48.412Z,50.93
2024-03-08T07:32:48.559Z,51.23
2024-03-08T07:33:48.645Z,51.27
2024-03-08T07:34:48.675Z,51.51
2024-03-08T07:35:48.761Z,51.68
2024-03-08T07:36:48.847Z,51.90
2024-03-08T07:37:48.951Z,51.85
2024-03-08T07:38:49.022Z,52.00
2024-03-08T07:39:49.061Z,51.94
2024-03-08T07:40:49.187Z,52.01
2024-03-08T07:41:49.344Z,51.88
2024-03-08T07:42:49.370Z,51.95
2024-03-08T07:43:49.490Z,52.26
2024-03-08T07:44:49.639Z,52.19
2024-03-08T07:45:49.646Z,51.29
2024-03-08T07:46:49.735Z,50.63
2024-03-08T07:47:49.960Z,49.48
2024-03-08T07:48:50.108Z,48.42
2024-03-08T07:49:50.049Z,48.48
2024-03-08T07:50:50.233Z,47.68
2024-03-08T07:51:50.257Z,46.57
2024-03-08T07:52:50.346Z,42.02
2024-03-08T07:53:50.496Z,43.26
2024-03-08T07:54:50.738Z,42.64
2024-03-08T07:55:50.738Z,43.96
2024-03-08T07:56:50.788Z,42.86
2024-03-08T07:57:50.839Z,43.00
2024-03-08T07:58:50.969Z,43.12
2024-03-08T07:59:51.043Z,42.39
2024-03-08T08:00:51.161Z,42.86
2024-03-08T08:01:51.408Z,43.12
2024-03-08T08:02:51.430Z,43.30
2024-03-08T08:03:51.505Z,43.22
2024-03-08T08:04:51.688Z,43.14
2024-03-08T08:05:51.698Z,43.09
2024-03-08T08:06:51.792Z,43.29
2024-03-08T08:07:52.919Z,43.66
2024-03-08T08:08:51.904Z,43.80
2024-03-08T08:09:51.913Z,43.96
2024-03-08T08:10:52.038Z,44.10
2024-03-08T08:11:52.103Z,43.92
2024-03-08T08:12:52.137Z,44.00
2024-03-08T08:13:52.297Z,44.08
2024-03-08T08:14:52.367Z,43.90
2024-03-08T08:15:52.445Z,43.81
2024-03-08T08:16:52.617Z,43.82
2024-03-08T08:17:52.739Z,43.70
2024-03-08T08:18:52.762Z,43.82
2024-03-08T08:19:52.941Z,43.97
2024-03-08T08:20:52.973Z,44.14
2024-03-08T08:21:53.037Z,44.47
2024-03-08T08:22:53.206Z,44.69
2024-03-08T08:23:53.245Z,44.81
2024-03-08T08:24:53.307Z,45.03
2024-03-08T08:25:53.530Z,45.21
2024-03-08T08:26:53.546Z,45.33
2024-03-08T08:27:53.601Z,45.41
2024-03-08T08:28:53.805Z,45.57
2024-03-08T08:29:53.779Z,45.65
2024-03-08T08:30:53.835Z,45.87
2024-03-08T08:31:53.928Z,46.30
2024-03-08T08:32:54.047Z,46.36
2024-03-08T08:33:54.132Z,46.61
2024-03-08T08:34:54.225Z,46.64
2024-03-08T08:35:54.298Z,46.77
2024-03-08T08:36:54.409Z,46.67
2024-03-08T08:37:54.557Z,46.44
2024-03-08T08:38:54.623Z,46.46
2024-03-08T08:39:54.836Z,46.42
2024-03-08T08:40:55.023Z,46.50
2024-03-08T08:41:56.286Z,46.21
2024-03-08T08:42:55.006Z,46.08
2024-03-08T08:44:03.479Z,46.10
2024-03-08T08:44:56.654Z,46.18
2024-03-08T08:45:55.136Z,46.23
2024-03-08T08:46:57.792Z,45.90
2024-03-08T08:47:56.276Z,46.15
2024-03-08T08:48:55.070Z,46.24
2024-03-08T08:49:55.081Z,46.35
2024-03-08T08:50:55.103Z,46.34
2024-03-08T08:51:56.831Z,46.44
2024-03-08T08:52:55.134Z,46.39
2024-03-08T08:53:55.095Z,46.48
2024-03-08T08:54:55.150Z,46.55
2024-03-08T08:55:55.241Z,46.89
2024-03-08T08:56:55.048Z,47.05
2024-03-08T08:57:55.217Z,47.40
2024-03-08T08:58:55.156Z,47.58
2024-03-08T08:59:55.081Z,47.85
2024-03-08T09:00:55.090Z,47.94
2024-03-08T09:01:55.189Z,47.90
2024-03-08T09:02:55.085Z,48.02
2024-03-08T09:03:55.153Z,47.97
2024-03-08T09:04:55.312Z,47.93
2024-03-08T09:05:55.069Z,47.86
2024-03-08T09:06:55.095Z,47.92
2024-03-08T09:07:55.142Z,47.94
2024-03-08T09:08:55.121Z,48.03
2024-03-08T09:09:55.079Z,48.05
2024-03-08T09:10:55.196Z,48.10
2024-03-08T09:11:55.154Z,48.12
2024-03-08T09:12:55.164Z,48.19
2024-03-08T09:13:55.134Z,48.39
2024-03-08T09:14:55.092Z,48.32
2024-03-08T09:15:55.117Z,48.47
2024-03-08T09:16:55.142Z,48.26
2024-03-08T09:17:55.108Z,48.05
2024-03-08T09:18:55.144Z,47.85
2024-03-08T09:19:55.173Z,47.97
2024-03-08T09:20:55.773Z,48.23
2024-03-08T09:21:55.072Z,48.22
2024-03-08T09:22:55.162Z,48.14
2024-03-08T09:23:55.144Z,48.44
2024-03-08T09:24:55.100Z,48.48
2024-03-08T09:25:55.135Z,48.63
2024-03-08T09:26:55.127Z,48.37
2024-03-08T09:27:55.103Z,48.14
2024-03-08T09:28:55.140Z,48.17
2024-03-08T09:29:55.155Z,48.04
2024-03-08T09:30:59.783Z,48.00
2024-03-08T09:31:56.187Z,47.82
2024-03-08T09:32:57.343Z,47.81
2024-03-08T09:33:55.119Z,48.06
2024-03-08T09:34:55.161Z,48.59
2024-03-08T09:35:55.094Z,48.03
2024-03-08T09:36:55.156Z,47.62
2024-03-08T09:37:55.184Z,47.24
2024-03-08T09:38:55.141Z,47.16
2024-03-08T09:39:55.183Z,47.12
2024-03-08T09:40:55.195Z,47.04
2024-03-08T09:41:55.105Z,47.12
2024-03-08T09:42:55.104Z,48.86
2024-03-08T09:43:55.217Z,47.32
2024-03-08T09:44:55.111Z,47.04
2024-03-08T09:45:55.122Z,46.81
2024-03-08T09:46:55.172Z,47.41
2024-03-08T09:47:55.125Z,47.38
2024-03-08T09:48:55.138Z,47.28
2024-03-08T09:49:55.256Z,47.15
2024-03-08T09:50:55.233Z,47.17
2024-03-08T09:51:55.173Z,47.34
2024-03-08T09:52:55.206Z,47.43
2024-03-08T09:53:55.147Z,47.55
2024-03-08T09:54:55.129Z,47.73
2024-03-08T09:55:55.275Z,47.92
2024-03-08T09:56:55.185Z,48.19
2024-03-08T09:57:55.219Z,48.30
2024-03-08T09:58:55.394Z,48.48
2024-03-08T09:59:55.208Z,48.49
2024-03-08T10:00:55.189Z,48.54
2024-03-08T10:01:55.297Z,48.53
2024-03-08T10:02:55.355Z,48.73
2024-03-08T10:03:55.197Z,48.72
2024-03-08T10:04:55.241Z,48.85
2024-03-08T10:05:55.261Z,49.08
2024-03-08T10:06:55.202Z,49.25
2024-03-08T10:07:55.214Z,49.34
2024-03-08T10:08:55.226Z,49.54
2024-03-08T10:09:55.291Z,49.52
2024-03-08T10:10:55.542Z,49.45
2024-03-08T10:11:55.461Z,49.60
2024-03-08T10:12:55.542Z,49.59
2024-03-08T10:13:55.716Z,49.51
2024-03-08T10:14:55.765Z,49.54
2024-03-08T10:15:55.847Z,49.52
2024-03-08T10:16:56.168Z,49.56
2024-03-08T10:17:56.103Z,49.62
2024-03-08T10:18:56.253Z,49.50
2024-03-08T10:19:56.345Z,49.65
2024-03-08T10:20:56.473Z,49.71
2024-03-08T10:21:56.708Z,49.62
2024-03-08T10:23:06.560Z,49.70
2024-03-08T10:23:57.874Z,49.52
2024-03-08T10:24:56.870Z,49.57
2024-03-08T10:25:56.920Z,49.65
2024-03-08T10:26:56.841Z,49.69
2024-03-08T10:27:56.843Z,49.76
2024-03-08T10:28:57.032Z,49.84
2024-03-08T10:29:56.863Z,50.04
2024-03-08T10:30:56.875Z,50.12
2024-03-08T10:31:56.898Z,50.15
2024-03-08T10:32:56.900Z,50.20
2024-03-08T10:33:56.864Z,50.30
2024-03-08T10:34:57.014Z,50.15
2024-03-08T10:35:57.076Z,50.07
2024-03-08T10:36:57.157Z,49.96
2024-03-08T10:37:57.362Z,49.83
2024-03-08T10:38:57.373Z,49.85
2024-03-08T10:39:57.497Z,49.87
2024-03-08T10:40:57.661Z,50.12
2024-03-08T10:41:57.725Z,49.84
2024-03-08T10:42:57.779Z,49.77
2024-03-08T10:43:57.966Z,49.51
2024-03-08T10:44:57.936Z,49.22
2024-03-08T10:45:58.092Z,48.81
2024-03-08T10:46:58.299Z,48.41
2024-03-08T10:47:58.396Z,48.41
2024-03-08T10:48:58.553Z,48.21
2024-03-08T10:49:58.730Z,48.10
2024-03-08T10:50:58.844Z,48.08
2024-03-08T10:51:59.013Z,47.90
2024-03-08T10:52:59.207Z,47.73
2024-03-08T10:53:59.279Z,47.62
2024-03-08T10:54:59.362Z,47.61
2024-03-08T10:55:59.470Z,47.72
2024-03-08T10:56:59.580Z,47.91
2024-03-08T10:57:59.674Z,47.91
2024-03-08T10:58:59.783Z,48.00
2024-03-08T11:00:00.143Z,47.72
2024-03-08T11:01:00.098Z,47.72
2024-03-08T11:02:00.303Z,47.58
2024-03-08T11:03:00.359Z,47.57
2024-03-08T11:04:00.397Z,47.29
2024-03-08T11:05:00.523Z,47.20
2024-03-08T11:06:00.493Z,47.16
2024-03-08T11:07:00.848Z,47.13
2024-03-08T11:08:00.757Z,47.00
2024-03-08T11:09:00.862Z,46.97
2024-03-08T11:10:00.814Z,46.92
2024-03-08T11:11:00.957Z,46.80
2024-03-08T11:12:00.967Z,46.64
2024-03-08T11:13:00.968Z,46.23
2024-03-08T11:14:01.235Z,45.86
2024-03-08T11:15:01.130Z,45.71
2024-03-08T11:16:01.243Z,45.79
2024-03-08T11:17:01.311Z,45.70
2024-03-08T11:18:01.414Z,45.59
2024-03-08T11:19:01.421Z,45.34
2024-03-08T11:20:01.598Z,45.25
2024-03-08T11:21:01.573Z,45.15
2024-03-08T11:22:01.679Z,45.12
2024-03-08T11:23:01.834Z,45.07
2024-03-08T11:24:01.849Z,45.02
2024-03-08T11:25:01.909Z,45.07
2024-03-08T11:26:01.940Z,45.01
2024-03-08T11:27:01.981Z,45.13
2024-03-08T11:28:02.051Z,45.09
2024-03-08T11:29:02.161Z,45.09
2024-03-08T11:30:02.248Z,45.07
2024-03-08T11:31:02.319Z,44.96
2024-03-08T11:32:02.390Z,44.83
2024-03-08T11:33:02.482Z,44.84
2024-03-08T11:34:02.576Z,44.72
2024-03-08T11:35:02.634Z,44.80
2024-03-08T11:36:03.948Z,44.79
2024-03-08T11:37:02.735Z,44.80
2024-03-08T11:38:02.800Z,44.72
2024-03-08T11:39:02.735Z,44.45
2024-03-08T11:40:02.817Z,44.81
2024-03-08T11:41:03.050Z,44.89
2024-03-08T11:42:03.005Z,44.69
2024-03-08T11:43:55.061Z,44.16
2024-03-08T11:44:55.017Z,44.17
2024-03-08T11:45:55.054Z,44.00
2024-03-08T11:46:55.153Z,43.87
2024-03-08T11:47:58.372Z,43.90
2024-03-08T11:48:55.122Z,44.04
2024-03-08T11:49:55.179Z,44.15
2024-03-08T11:50:55.121Z,44.18
2024-03-08T11:51:55.138Z,44.29
2024-03-08T11:52:55.171Z,44.36
2024-03-08T11:53:55.114Z,44.48
2024-03-08T11:54:55.107Z,44.54
2024-03-08T11:55:55.125Z,44.86
2024-03-08T11:56:55.118Z,45.00
2024-03-08T11:57:55.126Z,44.84
2024-03-08T11:58:55.171Z,44.68
2024-03-08T11:59:57.539Z,43.85
2024-03-08T12:00:55.125Z,44.51
2024-03-08T12:01:55.200Z,43.94
2024-03-08T12:02:55.116Z,42.40
2024-03-08T12:03:55.133Z,41.79
2024-03-08T12:04:55.209Z,42.67
2024-03-08T12:05:57.306Z,40.68
2024-03-08T12:06:55.150Z,42.08
2024-03-08T12:07:55.288Z,41.62
2024-03-08T12:08:55.160Z,41.24
2024-03-08T12:09:55.234Z,40.84
2024-03-08T12:10:55.274Z,40.45
2024-03-08T12:11:55.155Z,39.93
2024-03-08T12:12:55.181Z,39.51
2024-03-08T12:13:55.428Z,39.66
2024-03-08T12:14:55.283Z,40.22
2024-03-08T12:15:55.295Z,40.01
2024-03-08T12:16:55.375Z,39.73
2024-03-08T12:17:55.390Z,39.70
2024-03-08T12:18:55.560Z,39.99
2024-03-08T12:19:55.672Z,40.31
2024-03-08T12:20:55.663Z,40.67
2024-03-08T12:21:55.800Z,41.09
2024-03-08T12:22:55.955Z,41.64
2024-03-08T12:23:56.964Z,41.97
2024-03-08T12:24:56.074Z,42.08
2024-03-08T12:25:56.298Z,42.43
2024-03-08T12:26:56.323Z,42.68
2024-03-08T12:27:56.355Z,42.82
2024-03-08T12:28:56.487Z,43.11
2024-03-08T12:29:56.576Z,43.36
2024-03-08T12:30:56.722Z,43.38
2024-03-08T12:31:56.954Z,43.76
2024-03-08T12:32:56.924Z,43.97
2024-03-08T12:33:57.881Z,44.09
2024-03-08T12:34:57.179Z,44.13
2024-03-08T12:35:57.624Z,43.97
2024-03-08T12:36:57.345Z,43.77
2024-03-08T12:37:57.502Z,43.62
2024-03-08T12:38:57.498Z,43.55
2024-03-08T12:39:57.562Z,43.54
2024-03-08T12:40:57.634Z,43.51
2024-03-08T12:41:57.667Z,43.50
2024-03-08T12:42:57.783Z,43.47
2024-03-08T12:43:57.943Z,43.55
2024-03-08T12:44:57.902Z,43.70
2024-03-08T12:45:57.968Z,43.80
2024-03-08T12:46:58.146Z,43.65
2024-03-08T12:47:58.144Z,43.45
2024-03-08T12:48:58.179Z,43.29
2024-03-08T12:49:58.334Z,43.34
2024-03-08T12:50:58.356Z,43.42
2024-03-08T12:51:58.394Z,43.53
2024-03-08T12:52:58.511Z,43.64
2024-03-08T12:53:58.532Z,43.67